Time;durP1;ratioP1;P1;durP2;ratioP2;P2;SDS_P1;SDS_P2;PMS_P1;PMS_P2;Temp;Humidity;BMP_temperature;BMP_pressure;BME280_temperature;BME280_humidity;BME280_pressure;Samples;Min_cycle;Max_cycle;Signal;HPM_P1;HPM_P2
2022/08/29 00:02:24;;;;;;;48.30;7.90;;;;;;;25.57;51.45;100514.81;5052434;28;20032;-76
2022/08/29 00:04:50;;;;;;;33.05;7.57;;;;;;;25.58;50.96;100513.75;5052451;28;20029;-75
2022/08/29 00:07:15;;;;;;;35.58;7.75;;;;;;;25.60;50.88;100513.53;5052567;28;20032;-76
2022/08/29 00:09:41;;;;;;;32.08;6.70;;;;;;;25.58;50.81;100510.16;5052426;28;20029;-76
2022/08/29 00:12:06;;;;;;;50.35;7.45;;;;;;;25.50;50.84;100503.03;5052311;28;20025;-76
2022/08/29 00:14:32;;;;;;;42.55;6.78;;;;;;;25.46;50.83;100512.78;5052283;28;20149;-75
2022/08/29 00:16:58;;;;;;;50.42;8.45;;;;;;;25.48;50.90;100507.88;5052386;28;20020;-76
2022/08/29 00:19:23;;;;;;;36.33;7.23;;;;;;;25.52;50.66;100503.66;5052153;28;20035;-75
2022/08/29 00:21:49;;;;;;;47.58;10.02;;;;;;;25.56;50.43;100509.56;5052311;28;20116;-75
2022/08/29 00:24:15;;;;;;;36.35;7.07;;;;;;;25.49;50.33;100509.59;5052131;28;20032;-76
2022/08/29 00:26:41;;;;;;;44.97;7.63;;;;;;;25.42;50.37;100506.03;5052218;28;20021;-76
2022/08/29 00:29:07;;;;;;;50.95;7.80;;;;;;;25.32;50.42;100506.50;5052389;28;20052;-76
2022/08/29 00:31:32;;;;;;;43.92;7.22;;;;;;;25.39;50.37;100512.81;5052006;28;20021;-76
2022/08/29 00:33:58;;;;;;;37.72;7.40;;;;;;;25.37;50.32;100514.13;5052027;28;20033;-76
2022/08/29 00:36:25;;;;;;;63.20;9.32;;;;;;;25.27;50.60;100517.38;5052133;28;20041;-76
2022/08/29 00:38:50;;;;;;;59.47;9.60;;;;;;;25.24;50.89;100516.97;5051926;28;20098;-76
2022/08/29 00:41:16;;;;;;;53.63;7.85;;;;;;;25.33;50.71;100521.13;5051909;28;20033;-76
2022/08/29 00:43:41;;;;;;;55.15;7.80;;;;;;;25.28;50.92;100526.47;5051798;28;20445;-76
2022/08/29 00:46:16;;;;;;;45.65;7.20;;;;;;;25.22;50.79;100519.09;5051905;28;20048;-76
2022/08/29 00:48:47;;;;;;;58.22;9.45;;;;;;;25.19;51.01;100512.16;5051987;28;20025;-76
2022/08/29 00:51:18;;;;;;;83.93;8.88;;;;;;;25.25;50.58;100521.41;5051793;28;20082;-76
2022/08/29 00:53:46;;;;;;;68.38;9.23;;;;;;;25.23;50.61;100510.63;5051939;28;20060;-77
2022/08/29 00:56:14;;;;;;;59.25;7.38;;;;;;;25.20;51.00;100511.06;5051633;28;20099;-76
2022/08/29 00:58:45;;;;;;;61.30;9.18;;;;;;;25.19;50.80;100517.66;5051663;28;20034;-76
2022/08/29 01:01:10;;;;;;;70.28;9.82;;;;;;;25.19;51.00;100516.81;5051363;28;20033;-76
2022/08/29 01:03:37;;;;;;;66.47;8.65;;;;;;;25.13;51.19;100514.94;5051506;28;20040;-76
2022/08/29 01:06:04;;;;;;;50.15;7.57;;;;;;;25.05;51.04;100509.69;5051409;28;20521;-78
2022/08/29 01:08:30;;;;;;;53.38;7.95;;;;;;;25.05;51.29;100507.78;5051525;28;20021;-76
2022/08/29 01:13:42;;;;;;;50.65;7.80;;;;;;;25.01;51.35;100501.06;5051229;28;20126;-76
2022/08/29 01:16:09;;;;;;;62.75;9.00;;;;;;;24.95;51.59;100499.19;5050584;28;20025;-76
2022/08/29 01:18:36;;;;;;;41.25;7.70;;;;;;;24.90;51.44;100486.06;5050031;28;20017;-76
2022/08/29 01:21:08;;;;;;;48.72;9.02;;;;;;;25.00;51.29;100495.75;5050247;28;20017;-76
2022/08/29 01:23:52;;;;;;;38.78;6.88;;;;;;;24.90;51.35;100498.97;5051301;28;20555;-76
2022/08/29 01:26:18;;;;;;;35.80;7.47;;;;;;;24.89;51.43;100500.88;5051143;28;20045;-76
2022/08/29 01:28:48;;;;;;;38.45;6.63;;;;;;;24.89;51.50;100495.38;5051219;28;20032;-76
2022/08/29 01:31:19;;;;;;;41.55;7.20;;;;;;;24.92;51.28;100496.03;5051205;28;20483;-76
2022/08/29 01:33:55;;;;;;;40.33;6.57;;;;;;;24.84;51.67;100497.97;5051210;28;20036;-76
2022/08/29 01:36:38;;;;;;;42.92;7.78;;;;;;;24.82;51.53;100489.09;5051285;28;20067;-75
2022/08/29 01:39:03;;;;;;;;;;;;;;;24.87;51.32;100497.53;5051716;28;20041;-75
2022/08/29 01:41:30;;;;;;;71.95;7.47;;;;;;;24.80;51.53;100491.16;5051035;28;19934;-75
2022/08/29 01:43:56;;;;;;;32.13;9.02;;;;;;;24.76;51.68;100489.94;5055153;28;20063;-75
2022/08/29 01:46:28;;;;;;;47.33;8.05;;;;;;;24.75;51.71;100487.41;5055192;28;20395;-75
2022/08/29 01:48:55;;;;;;;44.90;6.90;;;;;;;24.79;51.03;100489.50;5053900;28;20025;-75
2022/08/29 01:51:20;;;;;;;32.22;5.70;;;;;;;24.71;51.46;100481.50;5055280;28;20029;-75
2022/08/29 01:53:46;;;;;;;29.98;6.47;;;;;;;24.73;51.34;100484.03;5055166;28;20108;-75
2022/08/29 01:56:15;;;;;;;38.35;7.32;;;;;;;24.77;51.01;100486.13;5054932;28;20056;-75
2022/08/29 01:58:42;;;;;;;34.28;8.30;;;;;;;24.73;51.09;100484.88;5055112;28;20055;-75
2022/08/29 02:01:09;;;;;;;59.50;8.80;;;;;;;24.83;51.14;100484.44;5054937;28;20025;-75
2022/08/29 02:03:34;;;;;;;36.22;6.30;;;;;;;24.85;51.03;100479.56;5054809;28;20406;-75
2022/08/29 02:06:01;;;;;;;55.97;8.25;;;;;;;24.87;51.13;100485.66;5054915;28;20125;-75
2022/08/29 02:08:27;;;;;;;48.45;6.82;;;;;;;24.79;50.83;100462.00;5054838;28;20108;-76
2022/08/29 02:10:53;;;;;;;36.97;6.75;;;;;;;24.94;50.59;100480.13;5054772;28;20028;-76
2022/08/29 02:13:18;;;;;;;41.85;7.30;;;;;;;24.92;50.45;100477.63;5054904;28;20684;-76
2022/08/29 02:15:44;;;;;;;58.55;8.55;;;;;;;24.97;50.55;100474.19;5054832;28;20048;-76
2022/08/29 02:18:10;;;;;;;39.85;7.45;;;;;;;24.90;50.46;100469.56;5054728;28;20063;-76
2022/08/29 02:20:35;;;;;;;41.97;8.15;;;;;;;24.90;50.70;100474.22;5054753;28;20454;-76
2022/08/29 02:23:00;;;;;;;41.13;6.47;;;;;;;24.85;50.96;100477.66;5054658;28;20040;-76
2022/08/29 02:25:41;;;;;;;42.92;6.68;;;;;;;24.85;50.67;100472.16;5054463;28;20033;-76
2022/08/29 02:28:12;;;;;;;34.95;7.75;;;;;;;24.97;50.77;100476.94;5054554;28;20024;-76
2022/08/29 02:30:42;;;;;;;49.03;9.80;;;;;;;24.92;51.46;100483.94;5054448;28;20025;-76
2022/08/29 02:33:12;;;;;;;36.53;7.68;;;;;;;24.79;51.77;100484.00;5054750;28;20029;-76
2022/08/29 02:35:38;;;;;;;54.60;7.80;;;;;;;24.64;52.46;100475.22;5053194;28;20032;-76
2022/08/29 02:38:04;;;;;;;47.92;8.38;;;;;;;24.66;52.72;100478.56;5054533;28;20029;-76
2022/08/29 02:40:30;;;;;;;44.70;8.63;;;;;;;24.71;52.63;100478.75;5054414;28;20250;-76
2022/08/29 02:42:56;;;;;;;51.65;9.52;;;;;;;24.69;52.98;100478.13;5054334;28;20033;-76
2022/08/29 02:45:22;;;;;;;56.67;7.68;;;;;;;24.75;52.93;100482.75;5053111;28;20039;-76
2022/08/29 02:47:49;;;;;;;50.33;9.05;;;;;;;24.74;53.32;100478.31;5054455;28;20163;-75
2022/08/29 02:50:15;;;;;;;54.78;9.15;;;;;;;24.83;53.14;100485.25;5054277;28;20017;-75
2022/08/29 02:52:42;;;;;;;50.92;9.05;;;;;;;24.86;53.32;100493.06;5054217;28;20047;-75
2022/08/29 02:55:12;;;;;;;39.85;7.70;;;;;;;24.86;53.20;100495.00;5052696;28;20053;-75
2022/08/29 02:57:37;;;;;;;34.40;9.68;;;;;;;24.82;53.18;100486.34;5054162;28;20051;-75
2022/08/29 03:00:07;;;;;;;40.78;7.93;;;;;;;24.84;53.04;100495.22;5054216;28;20454;-75
2022/08/29 03:02:33;;;;;;;36.10;8.10;;;;;;;24.78;53.21;100495.22;5054233;28;20036;-75
2022/08/29 03:04:58;;;;;;;51.42;7.88;;;;;;;24.77;52.86;100502.63;5053892;28;20033;-74
2022/08/29 03:07:24;;;;;;;39.28;8.60;;;;;;;24.71;53.04;100499.91;5053911;28;20025;-76
2022/08/29 03:09:50;;;;;;;65.15;9.68;;;;;;;24.70;52.96;100499.09;5053631;28;20063;-76
2022/08/29 03:12:15;;;;;;;47.22;8.93;;;;;;;24.79;52.41;100506.00;5053385;28;20475;-76
2022/08/29 03:14:41;;;;;;;60.63;8.93;;;;;;;24.76;51.90;100506.47;5053312;28;20029;-75
2022/08/29 03:17:06;;;;;;;39.80;8.50;;;;;;;24.80;52.12;100504.09;5053266;28;20063;-76
2022/08/29 03:19:32;;;;;;;58.70;9.32;;;;;;;24.77;52.09;100508.13;5053088;28;20475;-75
2022/08/29 03:21:59;;;;;;;47.08;8.93;;;;;;;24.79;52.06;100499.66;5053061;28;20083;-76
2022/08/29 03:24:24;;;;;;;36.92;8.65;;;;;;;24.79;52.29;100507.91;5053113;28;20025;-76
2022/08/29 03:26:50;;;;;;;58.13;9.48;;;;;;;24.83;52.32;100509.22;5053000;28;20044;-76
2022/08/29 03:29:15;;;;;;;60.60;8.77;;;;;;;24.78;52.19;100500.72;5052917;28;20025;-76
2022/08/29 03:31:41;;;;;;;49.97;8.27;;;;;;;24.79;52.46;100502.41;5052796;28;20035;-76
2022/08/29 03:34:06;;;;;;;37.70;8.85;;;;;;;24.92;52.30;100510.63;5053100;28;20032;-76
2022/08/29 03:36:32;;;;;;;47.47;7.57;;;;;;;24.89;52.10;100500.06;5052870;28;20426;-76
2022/08/29 03:38:57;;;;;;;57.55;9.32;;;;;;;24.91;52.24;100503.44;5052826;28;20039;-76
2022/08/29 03:41:27;;;;;;;61.25;9.07;;;;;;;24.94;51.92;100515.91;5052664;28;20033;-76
2022/08/29 03:43:54;;;;;;;44.47;9.05;;;;;;;25.00;52.13;100512.25;5052903;28;20029;-76
2022/08/29 03:46:21;;;;;;;62.72;10.70;;;;;;;24.96;51.82;100505.50;5051264;28;20516;-76
2022/08/29 03:48:47;;;;;;;95.18;13.07;;;;;;;25.00;51.90;100521.38;5052839;28;20114;-75
2022/08/29 03:51:13;;;;;;;82.07;11.57;;;;;;;25.02;52.10;100521.13;5052694;28;20100;-75
2022/08/29 03:53:39;;;;;;;63.80;10.00;;;;;;;25.00;52.20;100515.00;5052702;28;20079;-75
2022/08/29 03:56:05;;;;;;;63.78;11.70;;;;;;;25.09;52.03;100527.44;5051189;28;20060;-75
2022/08/29 03:58:31;;;;;;;70.97;12.35;;;;;;;25.09;52.07;100532.94;5052682;28;20058;-75
2022/08/29 04:00:57;;;;;;;73.30;11.27;;;;;;;25.04;52.35;100524.53;5052738;28;20383;-76
2022/08/29 04:03:23;;;;;;;55.10;10.73;;;;;;;25.07;52.58;100530.44;5051341;28;20025;-76
2022/08/29 04:05:48;;;;;;;62.13;10.60;;;;;;;25.18;52.42;100531.63;5051194;28;20071;-75
2022/08/29 04:08:14;;;;;;;61.20;11.15;;;;;;;25.27;52.40;100530.28;5051149;28;20021;-75
2022/08/29 04:10:40;;;;;;;58.80;9.80;;;;;;;25.20;52.27;100526.72;5051531;28;20020;-76
2022/08/29 04:13:07;;;;;;;68.93;10.75;;;;;;;25.15;52.54;100532.06;5052760;28;20036;-76
2022/08/29 04:15:33;;;;;;;64.15;10.93;;;;;;;25.11;52.98;100541.81;5052003;28;20113;-75
2022/08/29 04:18:02;;;;;;;65.07;10.80;;;;;;;25.10;53.47;100537.41;5052680;28;20402;-76
2022/08/29 04:20:31;;;;;;;59.35;12.40;;;;;;;25.16;53.40;100536.50;5065389;28;20532;-77
2022/08/29 04:22:58;;;;;;;61.90;12.68;;;;;;;25.12;53.43;100535.25;5058067;28;20094;-75
2022/08/29 04:25:25;;;;;;;59.88;10.38;;;;;;;25.19;53.70;100538.81;5062532;28;20112;-76
2022/08/29 04:27:52;;;;;;;69.35;11.32;;;;;;;25.24;53.64;100541.75;5055407;28;20037;-76
2022/08/29 04:30:19;;;;;;;74.22;10.75;;;;;;;25.20;53.88;100530.31;5069287;28;20024;-75
2022/08/29 04:32:46;;;;;;;65.53;10.43;;;;;;;25.33;53.42;100537.66;5071678;28;20060;-76
2022/08/29 04:35:12;;;;;;;58.28;10.75;;;;;;;25.36;53.09;100542.72;5061784;28;20039;-75
2022/08/29 04:37:39;;;;;;;67.60;11.48;;;;;;;25.33;52.89;100534.91;5052035;28;20735;-76
2022/08/29 04:40:07;;;;;;;63.45;11.88;;;;;;;25.27;52.78;100542.16;5051582;28;20060;-75
2022/08/29 04:42:35;;;;;;;50.40;11.90;;;;;;;25.27;52.82;100535.78;5051327;28;20029;-76
2022/08/29 04:45:01;;;;;;;71.65;13.32;;;;;;;25.31;52.81;100542.56;5051803;28;20392;-76
2022/08/29 04:47:27;;;;;;;47.33;11.40;;;;;;;25.33;52.85;100541.25;5049804;28;20032;-75
2022/08/29 04:49:54;;;;;;;49.72;11.65;;;;;;;25.38;52.80;100546.09;5051211;28;20107;-76
2022/08/29 04:52:19;;;;;;;73.55;12.70;;;;;;;25.41;52.68;100538.22;5051345;28;20068;-77
2022/08/29 04:54:45;;;;;;;53.28;10.93;;;;;;;25.43;52.84;100541.63;5051499;28;20052;-76
2022/08/29 04:57:11;;;;;;;59.22;11.27;;;;;;;25.49;52.67;100545.41;5050403;28;20038;-76
2022/08/29 04:59:36;;;;;;;74.95;12.93;;;;;;;25.56;53.12;100548.97;5062484;28;20077;-75
2022/08/29 05:02:02;;;;;;;83.25;14.18;;;;;;;25.63;53.51;100546.97;5067130;28;20474;-75
2022/08/29 05:04:27;;;;;;;57.00;12.20;;;;;;;25.72;53.65;100547.53;5064042;28;20111;-78
2022/08/29 05:06:53;;;;;;;71.72;13.63;;;;;;;25.82;52.99;100551.47;5051441;28;20025;-78
2022/08/29 05:09:18;;;;;;;106.38;17.15;;;;;;;25.91;52.41;100552.88;5050728;28;20044;-79
2022/08/29 05:11:44;;;;;;;94.55;14.88;;;;;;;25.93;52.57;100550.72;5050372;28;20024;-79
2022/08/29 05:14:09;;;;;;;62.25;12.75;;;;;;;25.99;52.50;100557.28;5049908;28;20112;-79
2022/08/29 05:16:36;;;;;;;70.70;13.63;;;;;;;26.04;52.98;100556.56;5052023;28;20391;-79
2022/08/29 05:19:04;;;;;;;59.50;12.15;;;;;;;26.12;52.45;100553.50;5051574;28;20029;-79
2022/08/29 05:21:36;;;;;;;62.63;12.98;;;;;;;26.19;52.51;100548.81;5051765;28;20037;-79
2022/08/29 05:24:09;;;;;;;;;;;;;;;26.27;52.45;100559.53;5052237;28;20473;-78
2022/08/29 05:26:38;;;;;;;89.40;14.40;;;;;;;26.28;52.53;100551.03;5051444;28;19956;-78
2022/08/29 05:29:08;;;;;;;68.95;15.02;;;;;;;26.37;53.05;100551.56;5050503;28;20139;-76
2022/08/29 05:31:35;;;;;;;69.97;12.05;;;;;;;26.44;52.92;100563.38;5051131;28;20063;-78
2022/08/29 05:34:02;;;;;;;72.22;11.35;;;;;;;26.46;52.23;100552.94;5050845;28;20061;-79
2022/08/29 05:36:27;;;;;;;59.28;10.95;;;;;;;26.61;51.90;100561.69;5052089;28;20039;-78
2022/08/29 05:38:53;;;;;;;75.28;12.82;;;;;;;26.64;51.65;100560.38;5051384;28;20446;-77
2022/08/29 05:41:18;;;;;;;83.25;13.80;;;;;;;26.73;51.83;100556.22;5050622;28;20083;-78
2022/08/29 05:43:44;;;;;;;74.07;14.55;;;;;;;26.74;51.45;100558.78;5050934;28;20036;-76
2022/08/29 05:46:10;;;;;;;68.93;12.70;;;;;;;26.85;51.33;100562.69;5050717;28;20769;-77
2022/08/29 05:48:39;;;;;;;84.18;15.57;;;;;;;26.93;50.99;100570.66;5050995;28;20371;-76
2022/08/29 05:51:04;;;;;;;76.18;14.25;;;;;;;27.04;50.65;100569.84;5051206;28;20059;-79
2022/08/29 05:53:30;;;;;;;67.20;13.10;;;;;;;27.09;50.38;100577.47;5061391;28;20032;-78
2022/08/29 05:55:55;;;;;;;73.65;14.20;;;;;;;27.09;50.04;100566.41;5050752;28;20067;-77
2022/08/29 05:58:21;;;;;;;67.15;15.20;;;;;;;27.20;50.02;100571.13;5049353;28;20052;-77
2022/08/29 06:00:48;;;;;;;65.38;15.25;;;;;;;27.19;50.09;100570.28;5050395;28;20029;-76
2022/08/29 06:03:13;;;;;;;67.88;14.50;;;;;;;27.29;50.18;100581.59;5050158;28;20106;-76
2022/08/29 06:05:40;;;;;;;92.97;13.48;;;;;;;27.40;50.12;100572.50;5050952;28;20065;-76
2022/08/29 06:08:07;;;;;;;47.78;12.88;;;;;;;27.46;50.29;100576.31;5050791;28;20463;-76
2022/08/29 06:10:33;;;;;;;86.70;14.63;;;;;;;27.53;50.33;100571.50;5050687;28;20028;-77
2022/08/29 06:12:59;;;;;;;80.13;15.70;;;;;;;27.55;49.80;100559.13;5053076;28;20037;-77
2022/08/29 06:15:27;;;;;;;66.22;13.35;;;;;;;27.68;49.82;100569.13;5071057;28;20473;-78
2022/08/29 06:17:53;;;;;;;90.18;14.25;;;;;;;27.79;49.88;100570.22;5061027;28;20474;-78
2022/08/29 06:20:19;;;;;;;58.88;12.27;;;;;;;27.86;48.78;100566.25;5050667;28;20421;-78
2022/08/29 06:22:45;;;;;;;68.85;13.82;;;;;;;27.90;49.13;100561.09;5051529;28;20086;-77
2022/08/29 06:25:11;;;;;;;63.53;13.88;;;;;;;27.97;49.01;100568.19;5050643;28;20491;-77
2022/08/29 06:27:37;;;;;;;64.10;16.23;;;;;;;28.09;48.82;100571.00;5050487;28;20058;-78
2022/08/29 06:30:03;;;;;;;67.10;13.82;;;;;;;28.17;48.54;100567.00;5063951;28;20020;-81
2022/08/29 06:32:29;;;;;;;74.60;13.23;;;;;;;28.24;48.15;100556.66;5075791;28;20029;-81
2022/08/29 06:34:54;;;;;;;66.82;13.50;;;;;;;28.33;47.94;100564.38;5060079;28;20813;-81
2022/08/29 06:37:20;;;;;;;87.45;12.98;;;;;;;28.40;47.91;100556.78;5054089;28;20083;-81
2022/08/29 06:39:45;;;;;;;73.05;15.00;;;;;;;28.43;47.64;100545.22;5055248;28;20387;-80
2022/08/29 06:42:11;;;;;;;68.03;13.65;;;;;;;28.60;47.25;100561.91;5054624;28;20029;-80
2022/08/29 06:44:37;;;;;;;55.05;13.18;;;;;;;28.67;47.33;100557.09;5073568;28;20025;-79
2022/08/29 06:47:02;;;;;;;81.03;14.70;;;;;;;28.70;46.78;100556.63;5059895;28;20057;-79
2022/08/29 06:49:28;;;;;;;77.68;15.02;;;;;;;28.73;46.37;100556.13;5054195;28;20021;-79
2022/08/29 06:51:54;;;;;;;83.43;14.15;;;;;;;28.72;46.22;100564.66;5054491;28;20033;-80
2022/08/29 06:54:22;;;;;;;80.88;15.60;;;;;;;28.79;46.03;100557.91;5053956;28;20083;-79
2022/08/29 06:56:49;;;;;;;93.40;15.40;;;;;;;28.81;46.19;100554.88;5054228;28;20040;-80
2022/08/29 06:59:16;;;;;;;60.33;14.68;;;;;;;28.88;46.20;100561.97;5054366;28;20029;-80
2022/08/29 07:01:43;;;;;;;63.42;14.90;;;;;;;28.93;45.94;100564.00;5054344;28;20036;-79
2022/08/29 07:04:10;;;;;;;70.18;16.80;;;;;;;28.97;46.27;100563.25;5052840;28;20032;-78
2022/08/29 07:06:38;;;;;;;83.07;15.77;;;;;;;29.01;46.57;100571.94;5063889;28;20025;-79
2022/08/29 07:09:04;;;;;;;74.03;16.50;;;;;;;29.09;46.32;100564.06;5072135;28;20032;-79
2022/08/29 07:11:31;;;;;;;79.50;17.10;;;;;;;29.14;46.18;100566.91;5053296;28;20100;-78
2022/08/29 07:13:59;;;;;;;70.68;15.68;;;;;;;29.20;46.06;100567.03;5052632;28;20102;-78
2022/08/29 07:16:25;;;;;;;90.53;18.40;;;;;;;29.29;45.81;100571.97;5051606;28;20028;-76
2022/08/29 07:18:51;;;;;;;59.72;12.45;;;;;;;29.32;45.48;100565.91;5052792;28;20471;-76
2022/08/29 07:21:19;;;;;;;65.30;14.10;;;;;;;29.39;45.63;100579.59;5053125;28;20044;-76
2022/08/29 07:23:44;;;;;;;98.35;29.90;;;;;;;29.39;49.63;100579.59;5052642;28;20526;-76
2022/08/29 07:26:17;;;;;;;89.05;31.55;;;;;;;29.45;50.57;100582.22;5051850;28;20031;-77
2022/08/29 07:28:44;;;;;;;112.40;26.80;;;;;;;29.46;50.35;100583.06;5051971;28;20082;-78
2022/08/29 07:31:10;;;;;;;70.65;21.15;;;;;;;29.45;50.74;100582.22;5052613;28;20009;-77
2022/08/29 07:33:35;;;;;;;65.05;17.15;;;;;;;29.49;51.13;100586.19;5052446;28;20052;-77
2022/08/29 07:36:02;;;;;;;73.03;14.27;;;;;;;29.47;52.23;100593.06;5053054;28;20056;-76
2022/08/29 07:38:29;;;;;;;69.82;14.50;;;;;;;29.51;51.72;100591.50;5052682;28;20029;-76
2022/08/29 07:41:04;;;;;;;59.47;11.55;;;;;;;29.34;51.49;100593.38;5052218;28;20031;-76
2022/08/29 07:43:29;;;;;;;67.50;12.38;;;;;;;29.20;51.74;100587.28;5052688;28;20398;-76
2022/08/29 07:45:55;;;;;;;53.05;11.00;;;;;;;29.15;51.18;100596.31;5052532;28;20032;-77
2022/08/29 07:48:21;;;;;;;64.70;10.93;;;;;;;29.15;50.62;100592.69;5052546;28;20044;-77
2022/08/29 07:50:47;;;;;;;75.80;9.88;;;;;;;29.17;51.74;100596.91;5052457;28;20024;-78
2022/08/29 07:53:13;;;;;;;59.63;10.90;;;;;;;29.16;51.92;100606.31;5052546;28;20025;-77
2022/08/29 07:55:38;;;;;;;66.47;11.18;;;;;;;29.19;51.66;100593.91;5052257;28;20571;-77
2022/08/29 07:58:04;;;;;;;66.82;10.93;;;;;;;29.35;51.55;100603.38;5052136;28;20414;-77
2022/08/29 08:00:30;;;;;;;53.28;11.18;;;;;;;29.37;51.64;100601.19;5052479;28;20730;-77
2022/08/29 08:02:56;;;;;;;50.58;9.27;;;;;;;29.43;51.02;100600.19;5052026;28;20077;-76
2022/08/29 08:05:21;;;;;;;50.08;9.40;;;;;;;29.48;49.92;100603.06;5052281;28;20119;-77
2022/08/29 08:07:48;;;;;;;43.17;9.52;;;;;;;29.57;49.93;100604.34;5052258;28;20025;-77
2022/08/29 08:10:19;;;;;;;51.75;9.20;;;;;;;29.53;49.21;100595.69;5052060;28;20032;-77
2022/08/29 08:12:46;;;;;;;48.33;8.48;;;;;;;29.59;49.06;100600.22;5052271;28;20056;-77
2022/08/29 08:15:12;;;;;;;37.47;7.50;;;;;;;29.62;48.75;100605.28;5052225;28;20432;-77
2022/08/29 08:17:38;;;;;;;48.10;8.35;;;;;;;29.68;47.20;100608.97;5052250;28;20533;-77
2022/08/29 08:20:06;;;;;;;53.75;7.95;;;;;;;29.79;46.88;100605.28;5051447;28;20029;-77
2022/08/29 08:22:32;;;;;;;35.53;7.45;;;;;;;29.87;46.30;100602.13;5050703;28;20025;-77
2022/08/29 08:24:57;;;;;;;60.10;11.25;;;;;;;29.97;46.04;100601.44;5052215;28;20039;-77
2022/08/29 08:27:23;;;;;;;47.65;9.63;;;;;;;30.06;45.76;100603.53;5051679;28;20045;-77
2022/08/29 08:29:48;;;;;;;54.80;8.52;;;;;;;30.07;45.33;100608.00;5056840;28;20028;-77
2022/08/29 08:32:14;;;;;;;56.38;9.38;;;;;;;30.08;45.15;100603.28;5054549;28;20097;-76
2022/08/29 08:34:39;;;;;;;48.45;7.82;;;;;;;30.12;45.03;100604.47;5062942;28;20020;-77
2022/08/29 08:37:06;;;;;;;64.32;10.65;;;;;;;30.10;44.81;100607.50;5069945;28;20040;-77
2022/08/29 08:39:32;;;;;;;42.83;7.78;;;;;;;30.23;43.94;100612.69;5071777;28;20028;-77
2022/08/29 08:42:19;;;;;;;64.47;10.55;;;;;;;30.38;43.34;100602.91;5071248;28;20382;-77
2022/08/29 08:45:03;;;;;;;43.85;9.32;;;;;;;30.48;42.80;100609.50;5041125;28;20077;-77
2022/08/29 08:47:38;;;;;;;69.28;10.57;;;;;;;30.47;42.88;100607.81;5068578;28;20108;-77
2022/08/29 08:50:12;;;;;;;50.95;9.95;;;;;;;30.62;42.06;100607.19;5051248;28;20390;-77
2022/08/29 08:53:04;;;;;;;54.33;7.78;;;;;;;30.66;40.12;100598.09;5051683;28;20063;-76
2022/08/29 08:55:41;;;;;;;62.13;8.57;;;;;;;30.76;40.59;100602.94;5051268;28;20052;-76
2022/08/29 08:58:32;;;;;;;43.05;8.55;;;;;;;30.79;39.96;100607.13;5051537;28;20327;-76
2022/08/29 09:01:13;;;;;;;43.28;8.68;;;;;;;30.87;39.79;100607.53;5051568;28;20025;-77
2022/08/29 09:04:12;;;;;;;69.30;9.25;;;;;;;30.97;39.58;100599.34;5051069;28;20112;-76
2022/08/29 09:07:15;;;;;;;54.85;9.23;;;;;;;31.08;39.04;100603.91;5050800;28;20029;-76
2022/08/29 09:09:49;;;;;;;63.42;9.88;;;;;;;31.08;39.96;100598.38;5051488;28;20112;-77
2022/08/29 09:12:23;;;;;;;54.67;8.70;;;;;;;31.09;40.65;100610.31;5051109;28;20561;-77
2022/08/29 09:14:59;;;;;;;43.80;8.52;;;;;;;31.04;40.79;100597.19;5050519;28;20041;-76
2022/08/29 09:17:46;;;;;;;49.20;8.88;;;;;;;31.14;40.91;100608.44;5067057;28;20149;-77
2022/08/29 09:20:19;;;;;;;41.95;8.10;;;;;;;31.22;40.14;100599.63;5065953;28;20039;-77
2022/08/29 09:22:58;;;;;;;66.40;10.60;;;;;;;31.33;40.62;100595.03;5051431;28;20048;-76
2022/08/29 09:25:24;;;;;;;55.25;7.45;;;;;;;31.33;40.46;100596.97;5051651;28;20025;-77
2022/08/29 09:27:50;;;;;;;76.20;9.05;;;;;;;31.25;41.29;100601.06;5051132;28;20040;-76
2022/08/29 09:30:25;;;;;;;58.45;10.52;;;;;;;31.23;41.13;100603.25;5049792;28;20515;-77
2022/08/29 09:32:55;;;;;;;59.72;9.27;;;;;;;31.33;41.20;100599.75;5057732;28;20055;-77
2022/08/29 09:35:33;;;;;;;50.38;7.70;;;;;;;31.29;42.23;100600.25;5054743;28;20064;-76
2022/08/29 09:38:05;;;;;;;55.90;8.18;;;;;;;31.26;42.62;100586.91;5066932;28;20108;-76
2022/08/29 09:40:48;;;;;;;73.75;9.93;;;;;;;31.13;41.04;100578.16;5056549;28;20372;-76
2022/08/29 09:43:27;;;;;;;64.70;8.07;;;;;;;31.24;41.53;100597.44;5050555;28;20410;-76
2022/08/29 09:46:04;;;;;;;65.80;9.90;;;;;;;31.12;43.48;100598.69;5050022;28;20033;-75
2022/08/29 09:48:30;;;;;;;64.32;9.82;;;;;;;30.98;43.71;100609.34;5063148;28;20099;-75
2022/08/29 09:51:21;;;;;;;63.28;8.57;;;;;;;30.89;43.69;100599.75;5063894;28;20020;-76
2022/08/29 09:53:46;;;;;;;47.75;9.00;;;;;;;30.99;44.31;100608.25;5051373;28;20486;-75
2022/08/29 09:56:20;;;;;;;59.35;8.48;;;;;;;31.04;45.93;100602.75;5048984;28;20053;-75
2022/08/29 09:58:58;;;;;;;36.55;7.75;;;;;;;30.96;47.34;100606.00;5049827;28;20453;-75
2022/08/29 10:01:23;;;;;;;54.47;7.95;;;;;;;31.02;49.23;100610.53;5050137;28;20032;-76
2022/08/29 10:04:00;;;;;;;61.50;9.57;;;;;;;31.00;47.05;100617.44;5051733;28;20025;-75
2022/08/29 10:06:32;;;;;;;39.95;7.72;;;;;;;31.04;48.76;100611.09;5053765;28;20056;-74
2022/08/29 10:09:03;;;;;;;;;;;;;;;31.20;48.84;100612.09;5054775;28;20028;-74
2022/08/29 10:11:35;;;;;;;61.78;9.13;;;;;;;31.19;47.84;100597.38;5063603;28;19908;-74
2022/08/29 10:14:09;;;;;;;53.03;8.90;;;;;;;31.25;46.06;100609.41;5074275;28;20111;-75
2022/08/29 10:16:44;;;;;;;43.67;7.70;;;;;;;31.24;42.73;100603.00;5049401;28;20109;-77
2022/08/29 10:19:28;;;;;;;49.50;8.27;;;;;;;31.40;46.82;100605.94;5052490;28;20499;-79
2022/08/29 10:22:18;;;;;;;43.03;8.02;;;;;;;31.46;46.41;100604.91;5054801;28;20037;-79
2022/08/29 10:25:10;;;;;;;60.60;9.52;;;;;;;31.40;46.67;100605.94;5054193;28;20033;-78
2022/08/29 10:27:56;;;;;;;52.05;8.73;;;;;;;31.61;46.77;100605.06;5055270;28;20024;-79
2022/08/29 10:30:31;;;;;;;40.03;6.47;;;;;;;31.61;46.39;100605.06;5055535;28;20028;-79
2022/08/29 10:33:53;;;;;;;53.67;7.95;;;;;;;31.63;44.97;100600.06;5054126;28;20032;-78
2022/08/29 10:36:30;;;;;;;53.15;9.32;;;;;;;31.80;43.54;100611.94;5029928;28;20079;-76
2022/08/29 10:38:55;;;;;;;45.78;7.78;;;;;;;32.17;44.95;100606.44;5053520;28;20029;-76
2022/08/29 10:41:38;;;;;;;46.15;8.25;;;;;;;32.28;49.29;100610.94;5053008;28;20029;-75
2022/08/29 10:44:28;;;;;;;50.00;9.30;;;;;;;32.41;50.48;100606.84;5054633;28;20494;-74
2022/08/29 10:47:21;;;;;;;40.67;8.50;;;;;;;32.61;51.05;100607.00;5053022;28;20155;-76
2022/08/29 10:50:37;;;;;;;38.35;8.68;;;;;;;32.77;50.82;100600.41;5053238;28;20033;-76
2022/08/29 10:53:06;;;;;;;43.33;8.98;;;;;;;32.91;50.47;100607.13;5012743;28;20065;-78
2022/08/29 10:55:44;;;;;;;47.50;7.97;;;;;;;32.93;50.24;100604.94;5053652;28;20127;-75
2022/08/29 10:58:20;;;;;;;54.20;9.20;;;;;;;32.83;50.39;100602.09;5053690;28;20033;-75
2022/08/29 11:00:52;;;;;;;52.85;8.35;;;;;;;32.93;48.15;100596.59;5052086;28;20040;-75
2022/08/29 11:03:46;;;;;;;53.85;9.82;;;;;;;32.94;47.74;100592.66;5054409;28;20495;-77
2022/08/29 11:06:20;;;;;;;49.00;9.52;;;;;;;32.77;46.62;100601.25;5052535;28;20029;-78
2022/08/29 11:08:54;;;;;;;47.33;9.07;;;;;;;32.90;46.52;100599.91;5053793;28;20028;-76
2022/08/29 11:11:22;;;;;;;50.63;9.15;;;;;;;32.80;45.14;100600.69;5053642;28;20029;-78
2022/08/29 11:14:01;;;;;;;63.75;8.00;;;;;;;32.52;45.08;100592.72;5053519;28;20094;-79
2022/08/29 11:16:42;;;;;;;43.20;8.07;;;;;;;32.63;46.63;100600.03;5052767;28;20116;-78
2022/08/29 11:19:20;;;;;;;35.83;7.78;;;;;;;32.58;48.73;100590.81;5053772;28;20036;-78
2022/08/29 11:21:48;;;;;;;28.23;7.53;;;;;;;32.50;49.43;100591.31;5053517;28;20029;-78
2022/08/29 11:24:16;;;;;;;49.28;8.68;;;;;;;32.35;48.82;100589.28;5052422;28;20051;-77
2022/08/29 11:27:01;;;;;;;47.03;9.10;;;;;;;32.31;47.84;100591.78;5053605;28;20033;-78
2022/08/29 11:29:35;;;;;;;65.85;8.68;;;;;;;32.38;48.08;100596.25;5047021;28;20532;-77